sensor_id;sensor_type;location;lat;lon;timestamp;pressure;altitude;pressure_sealevel;temperature;humidity
80568;BME280;69922;45.656;25.586;2024-02-23T00:00:49;94675.73;;;4.01;62.07
80568;BME280;69922;45.656;25.586;2024-02-23T00:02:13;94678.72;;;4.00;62.29
80568;BME280;69922;45.656;25.586;2024-02-23T00:03:18;94679.83;;;3.98;62.41
80568;BME280;69922;45.656;25.586;2024-02-23T00:04:22;94680.64;;;3.97;62.12
80568;BME280;69922;45.656;25.586;2024-02-23T00:05:27;94681.56;;;3.97;62.46
80568;BME280;69922;45.656;25.586;2024-02-23T00:06:31;94680.93;;;3.97;62.52
80568;BME280;69922;45.656;25.586;2024-02-23T00:07:35;94681.69;;;3.96;62.70
80568;BME280;69922;45.656;25.586;2024-02-23T00:08:39;94680.29;;;3.96;62.56
80568;BME280;69922;45.656;25.586;2024-02-23T00:09:44;94675.98;;;3.96;62.66
80568;BME280;69922;45.656;25.586;2024-02-23T00:10:48;94671.44;;;3.96;62.37
80568;BME280;69922;45.656;25.586;2024-02-23T00:11:52;94667.33;;;3.96;62.59
80568;BME280;69922;45.656;25.586;2024-02-23T00:12:57;94671.74;;;3.97;62.63
80568;BME280;69922;45.656;25.586;2024-02-23T00:14:00;94674.08;;;3.97;62.64
80568;BME280;69922;45.656;25.586;2024-02-23T00:15:07;94672.85;;;3.98;62.91
80568;BME280;69922;45.656;25.586;2024-02-23T00:16:11;94673.44;;;3.99;62.64
80568;BME280;69922;45.656;25.586;2024-02-23T00:17:15;94673.42;;;3.99;62.90
80568;BME280;69922;45.656;25.586;2024-02-23T00:18:20;94658.53;;;3.99;63.38
80568;BME280;69922;45.656;25.586;2024-02-23T00:19:25;94661.77;;;3.99;62.88
80568;BME280;69922;45.656;25.586;2024-02-23T00:20:29;94665.52;;;4.00;63.07
80568;BME280;69922;45.656;25.586;2024-02-23T00:21:33;94663.35;;;4.01;63.46
80568;BME280;69922;45.656;25.586;2024-02-23T00:22:37;94665.88;;;4.02;63.35
80568;BME280;69922;45.656;25.586;2024-02-23T00:23:41;94656.00;;;4.02;63.33
80568;BME280;69922;45.656;25.586;2024-02-23T00:24:45;94647.23;;;4.02;63.12
80568;BME280;69922;45.656;25.586;2024-02-23T00:25:49;94647.91;;;4.07;62.66
80568;BME280;69922;45.656;25.586;2024-02-23T00:26:53;94649.61;;;4.12;62.38
80568;BME280;69922;45.656;25.586;2024-02-23T00:27:57;94649.89;;;4.18;62.27
80568;BME280;69922;45.656;25.586;2024-02-23T00:29:02;94651.64;;;4.23;62.10
80568;BME280;69922;45.656;25.586;2024-02-23T00:30:10;94646.89;;;4.26;62.06
80568;BME280;69922;45.656;25.586;2024-02-23T00:31:14;94650.44;;;4.30;62.21
80568;BME280;69922;45.656;25.586;2024-02-23T00:32:19;94650.44;;;4.32;62.34
80568;BME280;69922;45.656;25.586;2024-02-23T00:33:23;94647.41;;;4.33;62.33
80568;BME280;69922;45.656;25.586;2024-02-23T00:34:26;94645.69;;;4.35;61.89
80568;BME280;69922;45.656;25.586;2024-02-23T00:35:30;94641.11;;;4.38;61.86
80568;BME280;69922;45.656;25.586;2024-02-23T00:36:34;94641.02;;;4.40;61.80
80568;BME280;69922;45.656;25.586;2024-02-23T00:37:39;94643.29;;;4.43;61.56
80568;BME280;69922;45.656;25.586;2024-02-23T00:38:43;94645.13;;;4.46;61.29
80568;BME280;69922;45.656;25.586;2024-02-23T00:39:47;94643.36;;;4.48;61.61
80568;BME280;69922;45.656;25.586;2024-02-23T00:40:51;94641.71;;;4.49;61.76
80568;BME280;69922;45.656;25.586;2024-02-23T00:41:55;94638.21;;;4.50;61.71
80568;BME280;69922;45.656;25.586;2024-02-23T00:43:00;94643.23;;;4.52;61.65
80568;BME280;69922;45.656;25.586;2024-02-23T00:44:05;94641.59;;;4.53;61.48
80568;BME280;69922;45.656;25.586;2024-02-23T00:45:10;94645.47;;;4.54;61.47
80568;BME280;69922;45.656;25.586;2024-02-23T00:46:14;94644.63;;;4.56;61.89
80568;BME280;69922;45.656;25.586;2024-02-23T00:47:20;94646.02;;;4.57;61.82
80568;BME280;69922;45.656;25.586;2024-02-23T00:48:24;94637.52;;;4.57;61.81
80568;BME280;69922;45.656;25.586;2024-02-23T00:49:30;94644.91;;;4.58;61.77
80568;BME280;69922;45.656;25.586;2024-02-23T00:50:34;94640.61;;;4.58;61.51
80568;BME280;69922;45.656;25.586;2024-02-23T00:51:38;94642.86;;;4.60;61.82
80568;BME280;69922;45.656;25.586;2024-02-23T00:52:42;94642.71;;;4.61;61.73
80568;BME280;69922;45.656;25.586;2024-02-23T00:53:47;94638.27;;;4.62;61.62
80568;BME280;69922;45.656;25.586;2024-02-23T00:54:51;94638.10;;;4.63;61.89
80568;BME280;69922;45.656;25.586;2024-02-23T00:55:55;94633.23;;;4.63;61.89
80568;BME280;69922;45.656;25.586;2024-02-23T00:57:00;94638.31;;;4.64;61.66
80568;BME280;69922;45.656;25.586;2024-02-23T00:58:05;94630.61;;;4.65;61.54
80568;BME280;69922;45.656;25.586;2024-02-23T00:59:10;94628.86;;;4.66;61.60
80568;BME280;69922;45.656;25.586;2024-02-23T01:00:16;94631.09;;;4.68;61.51
80568;BME280;69922;45.656;25.586;2024-02-23T01:01:20;94629.39;;;4.69;61.42
80568;BME280;69922;45.656;25.586;2024-02-23T01:02:25;94630.83;;;4.70;61.26
80568;BME280;69922;45.656;25.586;2024-02-23T01:03:29;94624.36;;;4.69;61.18
80568;BME280;69922;45.656;25.586;2024-02-23T01:04:34;94627.44;;;4.72;61.19
80568;BME280;69922;45.656;25.586;2024-02-23T01:05:37;94628.01;;;4.73;61.24
80568;BME280;69922;45.656;25.586;2024-02-23T01:06:43;94621.60;;;4.75;61.07
80568;BME280;69922;45.656;25.586;2024-02-23T01:07:47;94621.30;;;4.76;60.79
80568;BME280;69922;45.656;25.586;2024-02-23T01:08:51;94621.54;;;4.78;61.00
80568;BME280;69922;45.656;25.586;2024-02-23T01:09:55;94619.80;;;4.79;60.78
80568;BME280;69922;45.656;25.586;2024-02-23T01:10:59;94617.06;;;4.80;60.70
80568;BME280;69922;45.656;25.586;2024-02-23T01:12:04;94616.79;;;4.82;60.74
80568;BME280;69922;45.656;25.586;2024-02-23T01:13:10;94616.00;;;4.84;60.54
80568;BME280;69922;45.656;25.586;2024-02-23T01:14:14;94614.46;;;4.86;60.55
80568;BME280;69922;45.656;25.586;2024-02-23T01:15:18;94610.79;;;4.88;60.46
80568;BME280;69922;45.656;25.586;2024-02-23T01:16:22;94615.48;;;4.91;60.32
80568;BME280;69922;45.656;25.586;2024-02-23T01:17:26;94618.02;;;4.93;60.13
80568;BME280;69922;45.656;25.586;2024-02-23T01:18:31;94616.28;;;4.95;60.42
80568;BME280;69922;45.656;25.586;2024-02-23T01:19:35;94615.73;;;4.95;60.16
80568;BME280;69922;45.656;25.586;2024-02-23T01:20:39;94615.47;;;4.97;60.17
80568;BME280;69922;45.656;25.586;2024-02-23T01:21:43;94609.76;;;4.99;60.01
80568;BME280;69922;45.656;25.586;2024-02-23T01:22:47;94610.17;;;4.99;60.19
80568;BME280;69922;45.656;25.586;2024-02-23T01:23:52;94607.51;;;5.00;59.86
80568;BME280;69922;45.656;25.586;2024-02-23T01:24:56;94605.16;;;5.01;59.79
80568;BME280;69922;45.656;25.586;2024-02-23T01:26:01;94602.36;;;5.03;59.84
80568;BME280;69922;45.656;25.586;2024-02-23T01:27:06;94603.92;;;5.06;59.66
80568;BME280;69922;45.656;25.586;2024-02-23T01:28:10;94607.26;;;5.09;59.62
80568;BME280;69922;45.656;25.586;2024-02-23T01:29:14;94607.72;;;5.10;59.89
80568;BME280;69922;45.656;25.586;2024-02-23T01:30:20;94604.09;;;5.11;59.68
80568;BME280;69922;45.656;25.586;2024-02-23T01:31:24;94606.88;;;5.09;60.01
80568;BME280;69922;45.656;25.586;2024-02-23T01:32:28;94598.91;;;5.08;59.78
80568;BME280;69922;45.656;25.586;2024-02-23T01:33:32;94597.53;;;5.07;59.89
80568;BME280;69922;45.656;25.586;2024-02-23T01:34:37;94596.76;;;5.07;59.87
80568;BME280;69922;45.656;25.586;2024-02-23T01:35:40;94599.17;;;5.06;60.06
80568;BME280;69922;45.656;25.586;2024-02-23T01:36:44;94595.89;;;5.02;60.17
80568;BME280;69922;45.656;25.586;2024-02-23T01:37:48;94599.08;;;5.00;60.19
80568;BME280;69922;45.656;25.586;2024-02-23T01:38:52;94599.14;;;4.97;60.41
80568;BME280;69922;45.656;25.586;2024-02-23T01:39:57;94595.41;;;4.94;60.35
80568;BME280;69922;45.656;25.586;2024-02-23T01:41:01;94595.35;;;4.91;60.59
80568;BME280;69922;45.656;25.586;2024-02-23T01:42:06;94595.95;;;4.88;60.51
80568;BME280;69922;45.656;25.586;2024-02-23T01:43:10;94593.41;;;4.86;60.67
80568;BME280;69922;45.656;25.586;2024-02-23T01:44:14;94590.86;;;4.83;60.81
80568;BME280;69922;45.656;25.586;2024-02-23T01:45:19;94593.63;;;4.80;60.86
80568;BME280;69922;45.656;25.586;2024-02-23T01:46:24;94591.63;;;4.78;61.00
80568;BME280;69922;45.656;25.586;2024-02-23T01:47:28;94594.88;;;4.75;61.06
80568;BME280;69922;45.656;25.586;2024-02-23T01:48:34;94597.90;;;4.72;61.41
80568;BME280;69922;45.656;25.586;2024-02-23T01:49:39;94599.14;;;4.70;61.37
80568;BME280;69922;45.656;25.586;2024-02-23T01:50:43;94598.86;;;4.67;61.57
80568;BME280;69922;45.656;25.586;2024-02-23T01:51:47;94601.69;;;4.64;61.73
80568;BME280;69922;45.656;25.586;2024-02-23T01:52:52;94601.30;;;4.61;62.05
80568;BME280;69922;45.656;25.586;2024-02-23T01:53:56;94603.24;;;4.59;62.14
80568;BME280;69922;45.656;25.586;2024-02-23T01:55:00;94603.63;;;4.56;62.35
80568;BME280;69922;45.656;25.586;2024-02-23T01:56:07;94601.08;;;4.53;62.52
80568;BME280;69922;45.656;25.586;2024-02-23T01:57:12;94603.92;;;4.52;62.32
80568;BME280;69922;45.656;25.586;2024-02-23T01:58:39;94603.83;;;4.49;62.26
80568;BME280;69922;45.656;25.586;2024-02-23T01:59:43;94607.52;;;4.47;62.37
80568;BME280;69922;45.656;25.586;2024-02-23T02:00:48;94606.46;;;4.46;62.27
80568;BME280;69922;45.656;25.586;2024-02-23T02:01:52;94608.05;;;4.46;62.45
80568;BME280;69922;45.656;25.586;2024-02-23T02:02:57;94612.44;;;4.44;62.50
80568;BME280;69922;45.656;25.586;2024-02-23T02:04:03;94618.23;;;4.43;62.32
80568;BME280;69922;45.656;25.586;2024-02-23T02:05:09;94619.34;;;4.42;62.34
80568;BME280;69922;45.656;25.586;2024-02-23T02:06:13;94616.91;;;4.42;62.35
80568;BME280;69922;45.656;25.586;2024-02-23T02:07:19;94613.09;;;4.41;62.50
80568;BME280;69922;45.656;25.586;2024-02-23T02:08:26;94619.01;;;4.40;62.39
80568;BME280;69922;45.656;25.586;2024-02-23T02:09:31;94621.18;;;4.39;62.22
80568;BME280;69922;45.656;25.586;2024-02-23T02:10:36;94616.44;;;4.39;62.27
80568;BME280;69922;45.656;25.586;2024-02-23T02:11:46;94615.00;;;4.38;62.39
80568;BME280;69922;45.656;25.586;2024-02-23T02:12:50;94615.78;;;4.36;62.40
80568;BME280;69922;45.656;25.586;2024-02-23T02:13:55;94615.04;;;4.36;62.45
80568;BME280;69922;45.656;25.586;2024-02-23T02:14:59;94611.31;;;4.36;62.42
80568;BME280;69922;45.656;25.586;2024-02-23T02:16:06;94608.56;;;4.35;62.36
80568;BME280;69922;45.656;25.586;2024-02-23T02:17:10;94608.40;;;4.35;62.64
80568;BME280;69922;45.656;25.586;2024-02-23T02:18:14;94607.81;;;4.34;62.43
80568;BME280;69922;45.656;25.586;2024-02-23T02:19:18;94609.98;;;4.33;62.29
80568;BME280;69922;45.656;25.586;2024-02-23T02:20:25;94615.84;;;4.32;62.50
80568;BME280;69922;45.656;25.586;2024-02-23T02:21:33;94610.05;;;4.31;62.35
80568;BME280;69922;45.656;25.586;2024-02-23T02:22:37;94608.60;;;4.30;62.59
80568;BME280;69922;45.656;25.586;2024-02-23T02:23:41;94612.22;;;4.30;62.59
80568;BME280;69922;45.656;25.586;2024-02-23T02:24:46;94609.48;;;4.29;62.78
80568;BME280;69922;45.656;25.586;2024-02-23T02:25:54;94611.01;;;4.29;62.79
80568;BME280;69922;45.656;25.586;2024-02-23T02:26:59;94614.40;;;4.29;62.80
80568;BME280;69922;45.656;25.586;2024-02-23T02:28:07;94611.83;;;4.28;63.30
80568;BME280;69922;45.656;25.586;2024-02-23T02:29:11;94608.80;;;4.28;63.19
80568;BME280;69922;45.656;25.586;2024-02-23T02:30:16;94607.52;;;4.27;63.29
80568;BME280;69922;45.656;25.586;2024-02-23T02:31:21;94604.77;;;4.27;62.98
80568;BME280;69922;45.656;25.586;2024-02-23T02:32:24;94607.20;;;4.27;63.47
80568;BME280;69922;45.656;25.586;2024-02-23T02:33:28;94606.70;;;4.28;63.19
80568;BME280;69922;45.656;25.586;2024-02-23T02:34:32;94602.86;;;4.28;63.37
80568;BME280;69922;45.656;25.586;2024-02-23T02:35:37;94606.16;;;4.28;63.45
80568;BME280;69922;45.656;25.586;2024-02-23T02:36:41;94605.63;;;4.28;63.40
80568;BME280;69922;45.656;25.586;2024-02-23T02:37:45;94601.77;;;4.28;63.64
80568;BME280;69922;45.656;25.586;2024-02-23T02:38:50;94606.41;;;4.28;63.60
80568;BME280;69922;45.656;25.586;2024-02-23T02:39:54;94598.36;;;4.28;63.55
80568;BME280;69922;45.656;25.586;2024-02-23T02:40:58;94603.34;;;4.28;63.84
80568;BME280;69922;45.656;25.586;2024-02-23T02:42:07;94601.49;;;4.29;64.13
80568;BME280;69922;45.656;25.586;2024-02-23T02:43:10;94597.25;;;4.27;63.86
80568;BME280;69922;45.656;25.586;2024-02-23T02:44:14;94600.47;;;4.28;63.96
80568;BME280;69922;45.656;25.586;2024-02-23T02:45:21;94603.83;;;4.28;63.97
80568;BME280;69922;45.656;25.586;2024-02-23T02:46:25;94604.55;;;4.27;64.09
80568;BME280;69922;45.656;25.586;2024-02-23T02:47:29;94611.77;;;4.26;64.11
80568;BME280;69922;45.656;25.586;2024-02-23T02:48:34;94613.49;;;4.25;64.13
80568;BME280;69922;45.656;25.586;2024-02-23T02:49:38;94611.73;;;4.24;64.20
80568;BME280;69922;45.656;25.586;2024-02-23T02:50:43;94616.02;;;4.24;64.42
80568;BME280;69922;45.656;25.586;2024-02-23T02:51:48;94615.93;;;4.22;64.41
80568;BME280;69922;45.656;25.586;2024-02-23T02:52:52;94620.50;;;4.20;64.83
80568;BME280;69922;45.656;25.586;2024-02-23T02:53:56;94620.27;;;4.17;64.56
80568;BME280;69922;45.656;25.586;2024-02-23T02:55:00;94619.70;;;4.17;64.60
80568;BME280;69922;45.656;25.586;2024-02-23T02:56:07;94616.11;;;4.15;64.36
80568;BME280;69922;45.656;25.586;2024-02-23T02:57:11;94615.77;;;4.13;64.11
80568;BME280;69922;45.656;25.586;2024-02-23T02:58:15;94616.94;;;4.11;64.25
80568;BME280;69922;45.656;25.586;2024-02-23T02:59:19;94621.41;;;4.09;64.47
80568;BME280;69922;45.656;25.586;2024-02-23T03:00:23;94621.30;;;4.06;64.39
80568;BME280;69922;45.656;25.586;2024-02-23T03:01:27;94621.91;;;4.03;64.27
80568;BME280;69922;45.656;25.586;2024-02-23T03:02:31;94625.48;;;4.01;64.63
80568;BME280;69922;45.656;25.586;2024-02-23T03:03:36;94625.91;;;3.98;64.59
80568;BME280;69922;45.656;25.586;2024-02-23T03:04:45;94625.30;;;3.96;64.48
80568;BME280;69922;45.656;25.586;2024-02-23T03:05:50;94627.85;;;3.92;64.78
80568;BME280;69922;45.656;25.586;2024-02-23T03:06:54;94629.14;;;3.89;64.56
80568;BME280;69922;45.656;25.586;2024-02-23T03:07:59;94620.34;;;3.86;64.61
80568;BME280;69922;45.656;25.586;2024-02-23T03:09:04;94620.63;;;3.84;64.92
80568;BME280;69922;45.656;25.586;2024-02-23T03:10:09;94623.55;;;3.81;64.67
80568;BME280;69922;45.656;25.586;2024-02-23T03:11:14;94626.34;;;3.78;64.83
80568;BME280;69922;45.656;25.586;2024-02-23T03:12:18;94626.64;;;3.76;64.87
80568;BME280;69922;45.656;25.586;2024-02-23T03:13:23;94627.17;;;3.73;64.79
80568;BME280;69922;45.656;25.586;2024-02-23T03:14:27;94623.98;;;3.70;64.95
80568;BME280;69922;45.656;25.586;2024-02-23T03:15:32;94626.94;;;3.68;64.67
80568;BME280;69922;45.656;25.586;2024-02-23T03:16:38;94622.88;;;3.65;64.71
80568;BME280;69922;45.656;25.586;2024-02-23T03:17:42;94625.67;;;3.63;64.95
80568;BME280;69922;45.656;25.586;2024-02-23T03:18:47;94628.41;;;3.59;64.98
80568;BME280;69922;45.656;25.586;2024-02-23T03:19:51;94625.16;;;3.57;64.93
80568;BME280;69922;45.656;25.586;2024-02-23T03:20:55;94626.27;;;3.55;64.91
80568;BME280;69922;45.656;25.586;2024-02-23T03:22:00;94625.48;;;3.52;65.13
80568;BME280;69922;45.656;25.586;2024-02-23T03:23:04;94628.95;;;3.49;65.18
80568;BME280;69922;45.656;25.586;2024-02-23T03:24:09;94632.06;;;3.46;65.56
80568;BME280;69922;45.656;25.586;2024-02-23T03:25:13;94635.50;;;3.44;64.94
80568;BME280;69922;45.656;25.586;2024-02-23T03:26:17;94633.73;;;3.43;64.99
80568;BME280;69922;45.656;25.586;2024-02-23T03:27:28;94633.54;;;3.41;65.32
80568;BME280;69922;45.656;25.586;2024-02-23T03:28:33;94630.39;;;3.39;65.09
80568;BME280;69922;45.656;25.586;2024-02-23T03:29:39;94636.24;;;3.37;65.16
80568;BME280;69922;45.656;25.586;2024-02-23T03:30:42;94631.80;;;3.35;65.30
80568;BME280;69922;45.656;25.586;2024-02-23T03:31:47;94635.44;;;3.34;65.10
80568;BME280;69922;45.656;25.586;2024-02-23T03:32:51;94633.23;;;3.32;65.13
80568;BME280;69922;45.656;25.586;2024-02-23T03:33:55;94637.02;;;3.31;65.08
80568;BME280;69922;45.656;25.586;2024-02-23T03:34:59;94639.17;;;3.29;65.14
80568;BME280;69922;45.656;25.586;2024-02-23T03:36:05;94642.31;;;3.28;64.93
80568;BME280;69922;45.656;25.586;2024-02-23T03:37:09;94634.63;;;3.26;64.84
80568;BME280;69922;45.656;25.586;2024-02-23T03:38:14;94635.55;;;3.25;64.99
80568;BME280;69922;45.656;25.586;2024-02-23T03:39:17;94634.11;;;3.24;65.00
80568;BME280;69922;45.656;25.586;2024-02-23T03:40:21;94631.42;;;3.23;64.82
80568;BME280;69922;45.656;25.586;2024-02-23T03:41:25;94633.00;;;3.22;65.06
80568;BME280;69922;45.656;25.586;2024-02-23T03:42:29;94631.83;;;3.21;64.50
80568;BME280;69922;45.656;25.586;2024-02-23T03:43:34;94631.80;;;3.19;65.09
80568;BME280;69922;45.656;25.586;2024-02-23T03:44:38;94630.31;;;3.17;65.01
80568;BME280;69922;45.656;25.586;2024-02-23T03:45:43;94631.09;;;3.17;64.52
80568;BME280;69922;45.656;25.586;2024-02-23T03:46:47;94632.81;;;3.16;64.44
80568;BME280;69922;45.656;25.586;2024-02-23T03:47:52;94628.88;;;3.15;64.61
80568;BME280;69922;45.656;25.586;2024-02-23T03:48:56;94626.20;;;3.14;64.36
80568;BME280;69922;45.656;25.586;2024-02-23T03:50:01;94624.05;;;3.14;64.72
80568;BME280;69922;45.656;25.586;2024-02-23T03:51:08;94632.09;;;3.14;64.61
80568;BME280;69922;45.656;25.586;2024-02-23T03:52:12;94631.07;;;3.13;64.55
80568;BME280;69922;45.656;25.586;2024-02-23T03:53:16;94630.70;;;3.13;64.83
80568;BME280;69922;45.656;25.586;2024-02-23T03:54:20;94629.25;;;3.12;64.88
80568;BME280;69922;45.656;25.586;2024-02-23T03:55:23;94625.58;;;3.12;64.50
80568;BME280;69922;45.656;25.586;2024-02-23T03:56:27;94620.70;;;3.10;64.71
80568;BME280;69922;45.656;25.586;2024-02-23T03:57:32;94627.16;;;3.10;64.57
80568;BME280;69922;45.656;25.586;2024-02-23T03:58:36;94624.34;;;3.09;64.77
80568;BME280;69922;45.656;25.586;2024-02-23T03:59:40;94621.80;;;3.08;64.80
80568;BME280;69922;45.656;25.586;2024-02-23T04:00:55;94621.64;;;3.08;65.02
80568;BME280;69922;45.656;25.586;2024-02-23T04:02:00;94620.72;;;3.09;64.92
80568;BME280;69922;45.656;25.586;2024-02-23T04:03:05;94622.28;;;3.08;64.96
80568;BME280;69922;45.656;25.586;2024-02-23T04:04:10;94620.51;;;3.08;64.91
80568;BME280;69922;45.656;25.586;2024-02-23T04:05:14;94611.89;;;3.07;64.85
80568;BME280;69922;45.656;25.586;2024-02-23T04:06:18;94613.79;;;3.05;64.86
80568;BME280;69922;45.656;25.586;2024-02-23T04:07:22;94613.11;;;3.04;64.91
80568;BME280;69922;45.656;25.586;2024-02-23T04:08:26;94610.80;;;3.03;65.26
80568;BME280;69922;45.656;25.586;2024-02-23T04:09:31;94611.29;;;3.04;65.23
80568;BME280;69922;45.656;25.586;2024-02-23T04:10:35;94613.05;;;3.04;65.45
80568;BME280;69922;45.656;25.586;2024-02-23T04:11:39;94615.35;;;3.03;64.85
80568;BME280;69922;45.656;25.586;2024-02-23T04:12:43;94610.11;;;3.02;65.20
80568;BME280;69922;45.656;25.586;2024-02-23T04:13:47;94613.64;;;3.02;65.41
80568;BME280;69922;45.656;25.586;2024-02-23T04:14:55;94611.42;;;3.01;65.35
80568;BME280;69922;45.656;25.586;2024-02-23T04:16:02;94608.57;;;3.01;65.24
80568;BME280;69922;45.656;25.586;2024-02-23T04:17:06;94609.28;;;3.00;65.33
80568;BME280;69922;45.656;25.586;2024-02-23T04:18:11;94614.10;;;2.99;65.44
80568;BME280;69922;45.656;25.586;2024-02-23T04:19:16;94612.27;;;2.99;65.28
80568;BME280;69922;45.656;25.586;2024-02-23T04:20:19;94615.37;;;2.97;65.21
80568;BME280;69922;45.656;25.586;2024-02-23T04:21:23;94618.67;;;2.96;65.10
80568;BME280;69922;45.656;25.586;2024-02-23T04:22:28;94616.14;;;2.95;65.41
80568;BME280;69922;45.656;25.586;2024-02-23T04:23:32;94615.71;;;2.95;65.28
80568;BME280;69922;45.656;25.586;2024-02-23T04:24:37;94613.85;;;2.93;65.48
80568;BME280;69922;45.656;25.586;2024-02-23T04:25:42;94615.20;;;2.92;65.40
80568;BME280;69922;45.656;25.586;2024-02-23T04:26:45;94616.41;;;2.91;65.30
80568;BME280;69922;45.656;25.586;2024-02-23T04:27:50;94612.85;;;2.91;65.46
80568;BME280;69922;45.656;25.586;2024-02-23T04:28:54;94617.66;;;2.90;65.63
80568;BME280;69922;45.656;25.586;2024-02-23T04:29:58;94614.86;;;2.90;65.50
80568;BME280;69922;45.656;25.586;2024-02-23T04:31:02;94614.71;;;2.88;65.70
80568;BME280;69922;45.656;25.586;2024-02-23T04:32:07;94618.07;;;2.88;65.69
80568;BME280;69922;45.656;25.586;2024-02-23T04:33:12;94620.55;;;2.88;65.78
80568;BME280;69922;45.656;25.586;2024-02-23T04:34:16;94619.10;;;2.87;65.64
80568;BME280;69922;45.656;25.586;2024-02-23T04:35:20;94617.44;;;2.86;65.74
80568;BME280;69922;45.656;25.586;2024-02-23T04:36:24;94616.16;;;2.85;65.91
80568;BME280;69922;45.656;25.586;2024-02-23T04:37:28;94617.48;;;2.84;65.84
80568;BME280;69922;45.656;25.586;2024-02-23T04:38:32;94610.16;;;2.82;66.16
80568;BME280;69922;45.656;25.586;2024-02-23T04:39:38;94610.98;;;2.81;65.98
80568;BME280;69922;45.656;25.586;2024-02-23T04:40:45;94608.64;;;2.79;66.36
80568;BME280;69922;45.656;25.586;2024-02-23T04:41:49;94612.36;;;2.78;66.23
80568;BME280;69922;45.656;25.586;2024-02-23T04:42:53;94608.71;;;2.77;66.38
80568;BME280;69922;45.656;25.586;2024-02-23T04:43:57;94609.44;;;2.75;66.21
80568;BME280;69922;45.656;25.586;2024-02-23T04:45:09;94609.23;;;2.73;66.47
80568;BME280;69922;45.656;25.586;2024-02-23T04:46:13;94607.54;;;2.71;66.38
80568;BME280;69922;45.656;25.586;2024-02-23T04:47:18;94606.75;;;2.70;66.78
80568;BME280;69922;45.656;25.586;2024-02-23T04:48:22;94606.34;;;2.68;67.01
80568;BME280;69922;45.656;25.586;2024-02-23T04:49:26;94604.04;;;2.67;66.85
80568;BME280;69922;45.656;25.586;2024-02-23T04:50:30;94603.55;;;2.66;67.06
80568;BME280;69922;45.656;25.586;2024-02-23T04:51:34;94606.98;;;2.65;66.97
80568;BME280;69922;45.656;25.586;2024-02-23T04:52:38;94603.70;;;2.64;67.14
80568;BME280;69922;45.656;25.586;2024-02-23T04:53:42;94602.16;;;2.62;66.94
80568;BME280;69922;45.656;25.586;2024-02-23T04:54:47;94601.05;;;2.60;67.18
80568;BME280;69922;45.656;25.586;2024-02-23T04:55:51;94600.42;;;2.59;67.05
80568;BME280;69922;45.656;25.586;2024-02-23T04:56:56;94604.20;;;2.57;67.27
80568;BME280;69922;45.656;25.586;2024-02-23T04:57:59;94602.20;;;2.55;67.57
80568;BME280;69922;45.656;25.586;2024-02-23T04:59:04;94607.79;;;2.54;67.21
80568;BME280;69922;45.656;25.586;2024-02-23T05:00:10;94608.24;;;2.53;67.41
80568;BME280;69922;45.656;25.586;2024-02-23T05:01:14;94612.30;;;2.51;67.57
80568;BME280;69922;45.656;25.586;2024-02-23T05:02:18;94609.30;;;2.50;67.32
80568;BME280;69922;45.656;25.586;2024-02-23T05:03:22;94607.92;;;2.49;67.34
80568;BME280;69922;45.656;25.586;2024-02-23T05:04:27;94606.85;;;2.48;67.69
80568;BME280;69922;45.656;25.586;2024-02-23T05:05:32;94609.61;;;2.48;67.88
80568;BME280;69922;45.656;25.586;2024-02-23T05:06:36;94615.80;;;2.47;68.00
80568;BME280;69922;45.656;25.586;2024-02-23T05:07:41;94614.79;;;2.47;68.20
80568;BME280;69922;45.656;25.586;2024-02-23T05:08:45;94616.02;;;2.47;68.13
80568;BME280;69922;45.656;25.586;2024-02-23T05:09:49;94615.98;;;2.46;68.49
80568;BME280;69922;45.656;25.586;2024-02-23T05:10:53;94616.52;;;2.46;67.98
80568;BME280;69922;45.656;25.586;2024-02-23T05:11:57;94620.08;;;2.45;68.29
80568;BME280;69922;45.656;25.586;2024-02-23T05:13:02;94621.15;;;2.45;68.19
80568;BME280;69922;45.656;25.586;2024-02-23T05:14:06;94627.30;;;2.45;68.20
80568;BME280;69922;45.656;25.586;2024-02-23T05:15:11;94625.25;;;2.46;68.66
80568;BME280;69922;45.656;25.586;2024-02-23T05:16:15;94626.54;;;2.46;69.12
80568;BME280;69922;45.656;25.586;2024-02-23T05:17:20;94630.09;;;2.46;68.80
80568;BME280;69922;45.656;25.586;2024-02-23T05:18:24;94633.48;;;2.48;68.95
80568;BME280;69922;45.656;25.586;2024-02-23T05:19:28;94632.89;;;2.48;68.78
80568;BME280;69922;45.656;25.586;2024-02-23T05:20:32;94633.89;;;2.49;68.82
80568;BME280;69922;45.656;25.586;2024-02-23T05:21:37;94636.41;;;2.50;68.80
80568;BME280;69922;45.656;25.586;2024-02-23T05:22:40;94639.59;;;2.52;68.94
80568;BME280;69922;45.656;25.586;2024-02-23T05:23:44;94643.17;;;2.53;68.90
80568;BME280;69922;45.656;25.586;2024-02-23T05:24:50;94640.89;;;2.54;69.21
80568;BME280;69922;45.656;25.586;2024-02-23T05:25:54;94644.86;;;2.57;69.06
80568;BME280;69922;45.656;25.586;2024-02-23T05:26:59;94642.58;;;2.59;69.09
80568;BME280;69922;45.656;25.586;2024-02-23T05:28:06;94644.54;;;2.61;69.65
80568;BME280;69922;45.656;25.586;2024-02-23T05:29:10;94646.23;;;2.64;69.37
80568;BME280;69922;45.656;25.586;2024-02-23T05:30:17;94649.70;;;2.67;69.38
80568;BME280;69922;45.656;25.586;2024-02-23T05:31:21;94652.04;;;2.70;69.23
80568;BME280;69922;45.656;25.586;2024-02-23T05:32:45;94648.29;;;2.73;69.07
80568;BME280;69922;45.656;25.586;2024-02-23T05:33:51;94650.14;;;2.75;69.28
80568;BME280;69922;45.656;25.586;2024-02-23T05:34:55;94647.38;;;2.78;69.09
80568;BME280;69922;45.656;25.586;2024-02-23T05:36:00;94648.79;;;2.81;69.20
80568;BME280;69922;45.656;25.586;2024-02-23T05:37:07;94647.19;;;2.83;69.04
80568;BME280;69922;45.656;25.586;2024-02-23T05:38:12;94644.63;;;2.86;69.10
80568;BME280;69922;45.656;25.586;2024-02-23T05:39:16;94650.70;;;2.88;69.07
80568;BME280;69922;45.656;25.586;2024-02-23T05:40:21;94650.11;;;2.91;68.95
80568;BME280;69922;45.656;25.586;2024-02-23T05:41:25;94653.52;;;2.94;69.04
80568;BME280;69922;45.656;25.586;2024-02-23T05:42:30;94650.80;;;2.97;68.96
80568;BME280;69922;45.656;25.586;2024-02-23T05:43:33;94649.90;;;3.00;68.77